sensor_id;sensor_type;location;lat;lon;timestamp;temperature;humidity
1728;DHT22;861;48.808;9.006;2022-08-03T00:02:04;21.70;98.30
1728;DHT22;861;48.808;9.006;2022-08-03T00:04:30;21.70;98.50
1728;DHT22;861;48.808;9.006;2022-08-03T00:06:56;21.60;98.60
1728;DHT22;861;48.808;9.006;2022-08-03T00:09:22;21.60;98.70
1728;DHT22;861;48.808;9.006;2022-08-03T00:11:48;21.60;98.90
1728;DHT22;861;48.808;9.006;2022-08-03T00:14:14;21.60;98.90
1728;DHT22;861;48.808;9.006;2022-08-03T00:16:41;21.60;99.10
1728;DHT22;861;48.808;9.006;2022-08-03T00:19:07;21.60;99.20
1728;DHT22;861;48.808;9.006;2022-08-03T00:21:33;21.60;99.40
1728;DHT22;861;48.808;9.006;2022-08-03T00:23:59;21.50;99.50
1728;DHT22;861;48.808;9.006;2022-08-03T00:26:26;21.50;99.80
1728;DHT22;861;48.808;9.006;2022-08-03T00:28:52;21.50;99.90
1728;DHT22;861;48.808;9.006;2022-08-03T00:31:18;21.40;99.90
1728;DHT22;861;48.808;9.006;2022-08-03T00:33:44;21.40;99.90
1728;DHT22;861;48.808;9.006;2022-08-03T00:36:10;21.40;99.90
1728;DHT22;861;48.808;9.006;2022-08-03T00:38:36;21.40;99.90
1728;DHT22;861;48.808;9.006;2022-08-03T00:41:03;21.30;99.90
1728;DHT22;861;48.808;9.006;2022-08-03T00:43:29;21.20;99.90
1728;DHT22;861;48.808;9.006;2022-08-03T00:45:55;21.20;99.90
1728;DHT22;861;48.808;9.006;2022-08-03T00:48:22;21.20;99.90
1728;DHT22;861;48.808;9.006;2022-08-03T00:50:48;21.20;99.90
1728;DHT22;861;48.808;9.006;2022-08-03T00:53:15;21.20;99.90
1728;DHT22;861;48.808;9.006;2022-08-03T00:55:43;21.20;99.90
1728;DHT22;861;48.808;9.006;2022-08-03T00:58:11;21.10;99.90
1728;DHT22;861;48.808;9.006;2022-08-03T01:00:39;21.10;99.90
1728;DHT22;861;48.808;9.006;2022-08-03T01:03:09;21.00;99.90
1728;DHT22;861;48.808;9.006;2022-08-03T01:06:16;21.00;99.90
1728;DHT22;861;48.808;9.006;2022-08-03T01:09:24;21.00;99.90
1728;DHT22;861;48.808;9.006;2022-08-03T01:12:33;20.90;99.90
1728;DHT22;861;48.808;9.006;2022-08-03T01:19:07;20.80;99.90
1728;DHT22;861;48.808;9.006;2022-08-03T01:30:03;20.40;99.90
1728;DHT22;861;48.808;9.006;2022-08-03T01:32:48;20.40;99.90
1728;DHT22;861;48.808;9.006;2022-08-03T01:35:35;20.40;99.90
1728;DHT22;861;48.808;9.006;2022-08-03T01:38:14;20.50;99.90
1728;DHT22;861;48.808;9.006;2022-08-03T01:40:52;20.50;99.90
1728;DHT22;861;48.808;9.006;2022-08-03T01:43:27;20.50;99.90
1728;DHT22;861;48.808;9.006;2022-08-03T01:45:57;20.40;99.90
1728;DHT22;861;48.808;9.006;2022-08-03T01:48:27;20.40;99.90
1728;DHT22;861;48.808;9.006;2022-08-03T01:50:58;20.40;99.90
1728;DHT22;861;48.808;9.006;2022-08-03T01:53:27;20.50;99.90
1728;DHT22;861;48.808;9.006;2022-08-03T01:56:01;20.50;99.90
1728;DHT22;861;48.808;9.006;2022-08-03T01:58:35;20.50;99.90
1728;DHT22;861;48.808;9.006;2022-08-03T02:01:06;20.50;99.90
1728;DHT22;861;48.808;9.006;2022-08-03T02:03:39;20.40;99.90
1728;DHT22;861;48.808;9.006;2022-08-03T02:06:12;20.50;99.90
1728;DHT22;861;48.808;9.006;2022-08-03T02:08:44;20.50;99.90
1728;DHT22;861;48.808;9.006;2022-08-03T02:11:14;20.50;99.90
1728;DHT22;861;48.808;9.006;2022-08-03T02:13:43;20.50;99.90
1728;DHT22;861;48.808;9.006;2022-08-03T02:16:13;20.30;99.90
1728;DHT22;861;48.808;9.006;2022-08-03T02:18:41;20.30;99.90
1728;DHT22;861;48.808;9.006;2022-08-03T02:21:10;20.30;99.90
1728;DHT22;861;48.808;9.006;2022-08-03T02:23:40;20.20;99.90
1728;DHT22;861;48.808;9.006;2022-08-03T02:26:14;20.10;99.90
1728;DHT22;861;48.808;9.006;2022-08-03T02:28:51;19.90;99.90
1728;DHT22;861;48.808;9.006;2022-08-03T02:31:30;19.90;99.90
1728;DHT22;861;48.808;9.006;2022-08-03T02:34:11;20.00;99.90
1728;DHT22;861;48.808;9.006;2022-08-03T02:36:46;20.10;99.90
1728;DHT22;861;48.808;9.006;2022-08-03T02:39:20;20.20;99.90
1728;DHT22;861;48.808;9.006;2022-08-03T02:41:56;19.90;99.90
1728;DHT22;861;48.808;9.006;2022-08-03T02:44:32;20.00;99.90
1728;DHT22;861;48.808;9.006;2022-08-03T02:47:08;20.00;99.90
1728;DHT22;861;48.808;9.006;2022-08-03T02:49:38;20.00;99.90
1728;DHT22;861;48.808;9.006;2022-08-03T02:52:11;19.80;99.90
1728;DHT22;861;48.808;9.006;2022-08-03T02:54:40;19.80;99.90
1728;DHT22;861;48.808;9.006;2022-08-03T02:57:14;19.90;99.90
1728;DHT22;861;48.808;9.006;2022-08-03T02:59:45;19.90;99.90
1728;DHT22;861;48.808;9.006;2022-08-03T03:02:15;20.00;99.90
1728;DHT22;861;48.808;9.006;2022-08-03T03:04:47;20.00;99.90
1728;DHT22;861;48.808;9.006;2022-08-03T03:07:19;20.00;99.90
1728;DHT22;861;48.808;9.006;2022-08-03T03:09:46;20.00;99.90
1728;DHT22;861;48.808;9.006;2022-08-03T03:12:16;19.90;99.90
1728;DHT22;861;48.808;9.006;2022-08-03T03:14:44;19.80;99.90
1728;DHT22;861;48.808;9.006;2022-08-03T03:17:14;19.90;99.90
1728;DHT22;861;48.808;9.006;2022-08-03T03:19:45;19.80;99.90
1728;DHT22;861;48.808;9.006;2022-08-03T03:22:17;19.90;99.90
1728;DHT22;861;48.808;9.006;2022-08-03T03:24:47;19.90;99.90
1728;DHT22;861;48.808;9.006;2022-08-03T03:27:17;19.90;99.90
1728;DHT22;861;48.808;9.006;2022-08-03T03:29:44;19.80;99.90
1728;DHT22;861;48.808;9.006;2022-08-03T03:32:11;19.80;99.90
1728;DHT22;861;48.808;9.006;2022-08-03T03:34:39;19.70;99.90
1728;DHT22;861;48.808;9.006;2022-08-03T03:37:07;19.70;99.90
1728;DHT22;861;48.808;9.006;2022-08-03T03:39:34;19.60;99.90
1728;DHT22;861;48.808;9.006;2022-08-03T03:42:02;19.60;99.90
1728;DHT22;861;48.808;9.006;2022-08-03T03:44:29;19.70;99.90
1728;DHT22;861;48.808;9.006;2022-08-03T03:46:59;19.70;99.90
1728;DHT22;861;48.808;9.006;2022-08-03T03:49:26;19.60;99.90
1728;DHT22;861;48.808;9.006;2022-08-03T03:51:55;19.60;99.90
1728;DHT22;861;48.808;9.006;2022-08-03T03:54:22;19.60;99.90
1728;DHT22;861;48.808;9.006;2022-08-03T03:56:48;19.50;99.90
1728;DHT22;861;48.808;9.006;2022-08-03T03:59:14;19.40;99.90
1728;DHT22;861;48.808;9.006;2022-08-03T04:01:41;19.50;99.90
1728;DHT22;861;48.808;9.006;2022-08-03T04:04:07;19.50;99.90
1728;DHT22;861;48.808;9.006;2022-08-03T04:06:52;19.40;99.90
1728;DHT22;861;48.808;9.006;2022-08-03T04:09:42;19.40;99.90
1728;DHT22;861;48.808;9.006;2022-08-03T04:12:31;19.40;99.90
1728;DHT22;861;48.808;9.006;2022-08-03T04:15:01;19.40;99.90
1728;DHT22;861;48.808;9.006;2022-08-03T04:17:31;19.30;99.90
1728;DHT22;861;48.808;9.006;2022-08-03T04:20:02;19.40;99.90
1728;DHT22;861;48.808;9.006;2022-08-03T04:22:33;19.20;99.90
1728;DHT22;861;48.808;9.006;2022-08-03T04:25:08;19.30;99.90
1728;DHT22;861;48.808;9.006;2022-08-03T04:27:44;19.30;99.90
1728;DHT22;861;48.808;9.006;2022-08-03T04:30:14;19.40;99.90
1728;DHT22;861;48.808;9.006;2022-08-03T04:32:42;19.30;99.90
1728;DHT22;861;48.808;9.006;2022-08-03T04:35:15;19.30;99.90
1728;DHT22;861;48.808;9.006;2022-08-03T04:37:48;19.30;99.90
1728;DHT22;861;48.808;9.006;2022-08-03T04:40:33;19.30;99.90
1728;DHT22;861;48.808;9.006;2022-08-03T04:43:05;19.30;99.90
1728;DHT22;861;48.808;9.006;2022-08-03T04:45:36;19.30;99.90
1728;DHT22;861;48.808;9.006;2022-08-03T04:48:04;19.30;99.90
1728;DHT22;861;48.808;9.006;2022-08-03T04:50:33;19.30;99.90
1728;DHT22;861;48.808;9.006;2022-08-03T04:53:00;19.30;99.90
1728;DHT22;861;48.808;9.006;2022-08-03T04:55:31;19.40;99.90
1728;DHT22;861;48.808;9.006;2022-08-03T04:58:01;19.50;99.90
1728;DHT22;861;48.808;9.006;2022-08-03T05:00:29;19.60;99.90
1728;DHT22;861;48.808;9.006;2022-08-03T05:02:56;19.50;99.90
1728;DHT22;861;48.808;9.006;2022-08-03T05:05:22;19.50;99.90
1728;DHT22;861;48.808;9.006;2022-08-03T05:07:49;19.50;99.90
1728;DHT22;861;48.808;9.006;2022-08-03T05:10:16;19.50;99.90
1728;DHT22;861;48.808;9.006;2022-08-03T05:12:46;19.50;99.90
1728;DHT22;861;48.808;9.006;2022-08-03T05:15:14;19.60;99.90
1728;DHT22;861;48.808;9.006;2022-08-03T05:17:40;19.50;99.90
1728;DHT22;861;48.808;9.006;2022-08-03T05:20:08;19.40;99.90
1728;DHT22;861;48.808;9.006;2022-08-03T05:22:35;19.40;99.90
1728;DHT22;861;48.808;9.006;2022-08-03T05:25:02;19.40;99.90
1728;DHT22;861;48.808;9.006;2022-08-03T05:27:29;19.50;99.90
1728;DHT22;861;48.808;9.006;2022-08-03T05:29:55;19.70;99.90
1728;DHT22;861;48.808;9.006;2022-08-03T05:32:21;19.60;99.90
1728;DHT22;861;48.808;9.006;2022-08-03T05:34:48;19.70;99.90
1728;DHT22;861;48.808;9.006;2022-08-03T05:37:14;19.70;99.90
1728;DHT22;861;48.808;9.006;2022-08-03T05:51:57;20.30;99.90
1728;DHT22;861;48.808;9.006;2022-08-03T05:54:23;20.40;99.90
1728;DHT22;861;48.808;9.006;2022-08-03T05:56:49;20.40;99.90
1728;DHT22;861;48.808;9.006;2022-08-03T05:59:15;20.50;99.90
1728;DHT22;861;48.808;9.006;2022-08-03T06:01:42;20.60;99.90
1728;DHT22;861;48.808;9.006;2022-08-03T06:04:08;20.70;99.90
1728;DHT22;861;48.808;9.006;2022-08-03T06:06:34;20.70;99.90
1728;DHT22;861;48.808;9.006;2022-08-03T06:09:01;20.80;99.90
1728;DHT22;861;48.808;9.006;2022-08-03T06:11:27;21.00;99.90
1728;DHT22;861;48.808;9.006;2022-08-03T06:13:53;21.10;99.90
1728;DHT22;861;48.808;9.006;2022-08-03T06:16:19;21.20;99.90
1728;DHT22;861;48.808;9.006;2022-08-03T06:18:45;21.30;99.90
1728;DHT22;861;48.808;9.006;2022-08-03T06:21:11;21.40;99.90
1728;DHT22;861;48.808;9.006;2022-08-03T06:23:37;21.60;99.90
1728;DHT22;861;48.808;9.006;2022-08-03T06:26:04;21.70;99.90
1728;DHT22;861;48.808;9.006;2022-08-03T06:28:30;21.90;99.90
1728;DHT22;861;48.808;9.006;2022-08-03T06:30:56;22.10;99.90
1728;DHT22;861;48.808;9.006;2022-08-03T06:33:22;22.20;99.90
1728;DHT22;861;48.808;9.006;2022-08-03T06:35:50;22.40;99.90
1728;DHT22;861;48.808;9.006;2022-08-03T06:38:16;22.50;99.90
1728;DHT22;861;48.808;9.006;2022-08-03T06:40:42;22.70;99.90
1728;DHT22;861;48.808;9.006;2022-08-03T06:43:08;22.90;99.90
1728;DHT22;861;48.808;9.006;2022-08-03T06:45:34;23.00;99.90
1728;DHT22;861;48.808;9.006;2022-08-03T06:48:07;23.10;99.90
1728;DHT22;861;48.808;9.006;2022-08-03T06:50:40;23.30;99.90
1728;DHT22;861;48.808;9.006;2022-08-03T06:53:07;23.40;99.90
1728;DHT22;861;48.808;9.006;2022-08-03T06:55:34;23.60;99.90
1728;DHT22;861;48.808;9.006;2022-08-03T06:58:00;23.70;99.90
1728;DHT22;861;48.808;9.006;2022-08-03T07:00:27;23.90;99.90
1728;DHT22;861;48.808;9.006;2022-08-03T07:02:53;24.10;99.90
1728;DHT22;861;48.808;9.006;2022-08-03T07:05:19;24.20;99.90
1728;DHT22;861;48.808;9.006;2022-08-03T07:07:46;24.30;99.90
1728;DHT22;861;48.808;9.006;2022-08-03T07:10:12;24.40;99.90
1728;DHT22;861;48.808;9.006;2022-08-03T07:12:39;24.40;99.90
1728;DHT22;861;48.808;9.006;2022-08-03T07:15:07;24.70;99.90
1728;DHT22;861;48.808;9.006;2022-08-03T07:17:35;24.80;99.90
1728;DHT22;861;48.808;9.006;2022-08-03T07:20:06;25.00;99.90
1728;DHT22;861;48.808;9.006;2022-08-03T07:22:34;25.10;99.90
1728;DHT22;861;48.808;9.006;2022-08-03T07:25:01;25.30;99.90
1728;DHT22;861;48.808;9.006;2022-08-03T07:27:28;25.40;99.90
1728;DHT22;861;48.808;9.006;2022-08-03T07:29:56;25.60;99.90
1728;DHT22;861;48.808;9.006;2022-08-03T07:32:24;25.80;99.90
1728;DHT22;861;48.808;9.006;2022-08-03T07:34:53;25.90;99.90
1728;DHT22;861;48.808;9.006;2022-08-03T07:37:19;26.00;99.90
1728;DHT22;861;48.808;9.006;2022-08-03T07:39:45;26.00;99.90
1728;DHT22;861;48.808;9.006;2022-08-03T07:42:12;26.20;99.20
1728;DHT22;861;48.808;9.006;2022-08-03T07:44:39;26.30;99.60
1728;DHT22;861;48.808;9.006;2022-08-03T07:47:05;26.50;99.30
1728;DHT22;861;48.808;9.006;2022-08-03T07:49:32;26.60;98.00
1728;DHT22;861;48.808;9.006;2022-08-03T07:51:58;26.70;98.70
1728;DHT22;861;48.808;9.006;2022-08-03T07:54:42;26.90;98.20
1728;DHT22;861;48.808;9.006;2022-08-03T07:57:11;27.00;98.30
1728;DHT22;861;48.808;9.006;2022-08-03T07:59:37;27.20;97.90
1728;DHT22;861;48.808;9.006;2022-08-03T08:02:06;27.20;96.50
1728;DHT22;861;48.808;9.006;2022-08-03T08:04:32;27.30;96.10
1728;DHT22;861;48.808;9.006;2022-08-03T08:06:59;27.50;94.00
1728;DHT22;861;48.808;9.006;2022-08-03T08:09:25;27.70;94.00
1728;DHT22;861;48.808;9.006;2022-08-03T08:11:51;28.00;94.10
1728;DHT22;861;48.808;9.006;2022-08-03T08:14:17;27.90;93.80
1728;DHT22;861;48.808;9.006;2022-08-03T08:16:43;28.10;93.70
1728;DHT22;861;48.808;9.006;2022-08-03T08:19:09;28.20;92.50
1728;DHT22;861;48.808;9.006;2022-08-03T08:21:36;28.30;92.70
1728;DHT22;861;48.808;9.006;2022-08-03T08:24:02;28.30;91.50
1728;DHT22;861;48.808;9.006;2022-08-03T08:26:31;28.30;91.00
1728;DHT22;861;48.808;9.006;2022-08-03T08:28:57;28.30;91.50
1728;DHT22;861;48.808;9.006;2022-08-03T08:31:23;28.50;90.40
1728;DHT22;861;48.808;9.006;2022-08-03T08:33:50;28.60;89.90
1728;DHT22;861;48.808;9.006;2022-08-03T08:36:16;28.60;90.40
1728;DHT22;861;48.808;9.006;2022-08-03T08:38:43;28.70;90.40
1728;DHT22;861;48.808;9.006;2022-08-03T08:41:12;28.80;90.20
1728;DHT22;861;48.808;9.006;2022-08-03T08:43:41;29.10;88.40
1728;DHT22;861;48.808;9.006;2022-08-03T08:46:13;29.20;88.20
1728;DHT22;861;48.808;9.006;2022-08-03T08:48:43;29.30;87.30
1728;DHT22;861;48.808;9.006;2022-08-03T08:51:12;29.40;85.60
1728;DHT22;861;48.808;9.006;2022-08-03T08:53:45;29.40;83.20
1728;DHT22;861;48.808;9.006;2022-08-03T08:56:19;29.30;80.00
1728;DHT22;861;48.808;9.006;2022-08-03T08:59:00;29.30;79.60
1728;DHT22;861;48.808;9.006;2022-08-03T09:01:27;29.50;79.80
1728;DHT22;861;48.808;9.006;2022-08-03T09:03:54;29.60;75.50
1728;DHT22;861;48.808;9.006;2022-08-03T09:06:22;29.70;75.60
1728;DHT22;861;48.808;9.006;2022-08-03T09:08:49;29.80;75.80
1728;DHT22;861;48.808;9.006;2022-08-03T09:11:20;29.90;77.00
1728;DHT22;861;48.808;9.006;2022-08-03T09:13:48;30.00;77.10
1728;DHT22;861;48.808;9.006;2022-08-03T09:16:18;30.10;75.50
1728;DHT22;861;48.808;9.006;2022-08-03T09:18:53;30.30;71.90
1728;DHT22;861;48.808;9.006;2022-08-03T09:21:26;30.20;74.40
1728;DHT22;861;48.808;9.006;2022-08-03T09:24:00;30.30;71.50
1728;DHT22;861;48.808;9.006;2022-08-03T09:26:35;30.40;73.70
1728;DHT22;861;48.808;9.006;2022-08-03T09:29:10;30.70;71.40
1728;DHT22;861;48.808;9.006;2022-08-03T09:31:43;30.70;70.30
1728;DHT22;861;48.808;9.006;2022-08-03T09:34:15;30.80;71.50
1728;DHT22;861;48.808;9.006;2022-08-03T09:36:48;31.00;72.90
1728;DHT22;861;48.808;9.006;2022-08-03T09:42:04;31.20;68.20
1728;DHT22;861;48.808;9.006;2022-08-03T09:44:48;31.20;69.40
1728;DHT22;861;48.808;9.006;2022-08-03T09:47:32;31.30;69.40
1728;DHT22;861;48.808;9.006;2022-08-03T09:50:07;31.50;67.60
1728;DHT22;861;48.808;9.006;2022-08-03T09:52:40;31.70;65.30
1728;DHT22;861;48.808;9.006;2022-08-03T09:55:13;31.80;65.60
1728;DHT22;861;48.808;9.006;2022-08-03T09:57:40;31.70;65.00
1728;DHT22;861;48.808;9.006;2022-08-03T10:00:16;31.70;65.70
1728;DHT22;861;48.808;9.006;2022-08-03T10:02:44;31.80;67.90
1728;DHT22;861;48.808;9.006;2022-08-03T10:05:12;32.00;66.50
1728;DHT22;861;48.808;9.006;2022-08-03T10:07:45;32.10;61.90
1728;DHT22;861;48.808;9.006;2022-08-03T10:10:17;32.20;63.40
1728;DHT22;861;48.808;9.006;2022-08-03T10:12:44;32.20;63.90
1728;DHT22;861;48.808;9.006;2022-08-03T10:15:12;32.10;63.60
1728;DHT22;861;48.808;9.006;2022-08-03T10:17:39;32.00;63.90
1728;DHT22;861;48.808;9.006;2022-08-03T10:20:08;32.20;67.80
1728;DHT22;861;48.808;9.006;2022-08-03T10:22:39;32.40;65.70
1728;DHT22;861;48.808;9.006;2022-08-03T10:25:11;32.60;64.40
1728;DHT22;861;48.808;9.006;2022-08-03T10:27:46;32.70;63.80
1728;DHT22;861;48.808;9.006;2022-08-03T10:30:17;32.80;61.80
1728;DHT22;861;48.808;9.006;2022-08-03T10:32:55;32.90;61.90
1728;DHT22;861;48.808;9.006;2022-08-03T10:35:36;33.00;63.20
1728;DHT22;861;48.808;9.006;2022-08-03T10:38:12;33.20;60.70
1728;DHT22;861;48.808;9.006;2022-08-03T10:40:53;33.50;60.20
1728;DHT22;861;48.808;9.006;2022-08-03T10:43:27;33.50;58.20
1728;DHT22;861;48.808;9.006;2022-08-03T10:46:10;33.50;58.70
1728;DHT22;861;48.808;9.006;2022-08-03T10:48:37;33.40;58.50
1728;DHT22;861;48.808;9.006;2022-08-03T10:51:04;33.60;58.20
1728;DHT22;861;48.808;9.006;2022-08-03T10:53:43;33.60;58.00
1728;DHT22;861;48.808;9.006;2022-08-03T10:59:16;33.90;57.30
1728;DHT22;861;48.808;9.006;2022-08-03T11:02:01;34.00;56.50
1728;DHT22;861;48.808;9.006;2022-08-03T11:04:28;34.20;58.30
1728;DHT22;861;48.808;9.006;2022-08-03T11:07:20;34.30;56.90
1728;DHT22;861;48.808;9.006;2022-08-03T17:40:40;38.00;40.20
1728;DHT22;861;48.808;9.006;2022-08-03T17:43:08;37.70;40.40
1728;DHT22;861;48.808;9.006;2022-08-03T17:45:34;37.60;40.70
1728;DHT22;861;48.808;9.006;2022-08-03T17:48:00;37.60;40.90
1728;DHT22;861;48.808;9.006;2022-08-03T17:50:58;37.50;41.40
1728;DHT22;861;48.808;9.006;2022-08-03T17:53:44;37.20;41.30
1728;DHT22;861;48.808;9.006;2022-08-03T17:56:42;36.90;40.80
1728;DHT22;861;48.808;9.006;2022-08-03T17:59:41;36.60;41.70
1728;DHT22;861;48.808;9.006;2022-08-03T18:05:58;36.00;43.40
1728;DHT22;861;48.808;9.006;2022-08-03T18:08:40;35.70;42.60
1728;DHT22;861;48.808;9.006;2022-08-03T18:11:22;35.40;43.20
1728;DHT22;861;48.808;9.006;2022-08-03T18:14:27;35.30;43.60
1728;DHT22;861;48.808;9.006;2022-08-03T18:17:16;34.90;43.50
1728;DHT22;861;48.808;9.006;2022-08-03T18:19:54;34.90;44.00
1728;DHT22;861;48.808;9.006;2022-08-03T18:22:22;34.80;44.40
1728;DHT22;861;48.808;9.006;2022-08-03T18:24:52;34.60;44.70
1728;DHT22;861;48.808;9.006;2022-08-03T18:27:22;34.50;44.40
1728;DHT22;861;48.808;9.006;2022-08-03T18:29:49;34.40;44.90
1728;DHT22;861;48.808;9.006;2022-08-03T18:32:17;34.30;44.90
1728;DHT22;861;48.808;9.006;2022-08-03T18:34:44;34.20;45.40
1728;DHT22;861;48.808;9.006;2022-08-03T18:37:16;34.10;46.10
1728;DHT22;861;48.808;9.006;2022-08-03T18:39:47;34.00;46.00
1728;DHT22;861;48.808;9.006;2022-08-03T18:42:14;33.90;45.70
1728;DHT22;861;48.808;9.006;2022-08-03T18:44:41;33.80;46.10
1728;DHT22;861;48.808;9.006;2022-08-03T18:47:49;33.70;46.10
1728;DHT22;861;48.808;9.006;2022-08-03T18:51:09;33.60;46.60
1728;DHT22;861;48.808;9.006;2022-08-03T18:54:03;33.40;46.60
1728;DHT22;861;48.808;9.006;2022-08-03T18:56:42;33.30;46.70
1728;DHT22;861;48.808;9.006;2022-08-03T18:59:41;33.20;47.10
1728;DHT22;861;48.808;9.006;2022-08-03T19:02:40;33.10;46.70
1728;DHT22;861;48.808;9.006;2022-08-03T19:05:23;33.00;46.90
1728;DHT22;861;48.808;9.006;2022-08-03T19:08:03;32.90;47.10
1728;DHT22;861;48.808;9.006;2022-08-03T19:10:47;32.70;47.80
1728;DHT22;861;48.808;9.006;2022-08-03T19:13:29;32.70;48.00
1728;DHT22;861;48.808;9.006;2022-08-03T19:16:20;32.60;49.30
1728;DHT22;861;48.808;9.006;2022-08-03T19:18:58;32.50;49.30
1728;DHT22;861;48.808;9.006;2022-08-03T19:21:29;32.40;48.80
1728;DHT22;861;48.808;9.006;2022-08-03T19:24:02;32.20;48.70
1728;DHT22;861;48.808;9.006;2022-08-03T19:26:36;32.10;48.80
1728;DHT22;861;48.808;9.006;2022-08-03T19:29:09;31.90;49.40
1728;DHT22;861;48.808;9.006;2022-08-03T19:31:39;31.80;49.60
1728;DHT22;861;48.808;9.006;2022-08-03T19:34:05;31.70;49.80
1728;DHT22;861;48.808;9.006;2022-08-03T19:36:35;31.70;49.80
1728;DHT22;861;48.808;9.006;2022-08-03T19:39:04;31.60;50.00
1728;DHT22;861;48.808;9.006;2022-08-03T19:41:38;31.50;50.30
1728;DHT22;861;48.808;9.006;2022-08-03T19:44:14;31.40;50.20
1728;DHT22;861;48.808;9.006;2022-08-03T19:47:09;31.20;49.70
1728;DHT22;861;48.808;9.006;2022-08-03T19:49:44;31.10;51.00
1728;DHT22;861;48.808;9.006;2022-08-03T19:52:16;31.00;51.10
1728;DHT22;861;48.808;9.006;2022-08-03T19:54:50;30.90;51.40
1728;DHT22;861;48.808;9.006;2022-08-03T19:57:25;30.80;52.00
1728;DHT22;861;48.808;9.006;2022-08-03T19:59:56;30.70;52.80
1728;DHT22;861;48.808;9.006;2022-08-03T20:02:24;30.50;53.20
1728;DHT22;861;48.808;9.006;2022-08-03T20:04:51;30.50;54.30
1728;DHT22;861;48.808;9.006;2022-08-03T20:07:18;30.40;54.10
1728;DHT22;861;48.808;9.006;2022-08-03T20:09:45;30.30;54.80
1728;DHT22;861;48.808;9.006;2022-08-03T20:12:13;30.20;54.50
1728;DHT22;861;48.808;9.006;2022-08-03T20:14:50;30.00;55.70
1728;DHT22;861;48.808;9.006;2022-08-03T20:17:26;29.90;55.00
1728;DHT22;861;48.808;9.006;2022-08-03T20:19:53;29.80;55.20
1728;DHT22;861;48.808;9.006;2022-08-03T20:22:34;29.70;55.90
1728;DHT22;861;48.808;9.006;2022-08-03T20:25:07;29.60;55.70
1728;DHT22;861;48.808;9.006;2022-08-03T20:27:45;29.60;55.70
1728;DHT22;861;48.808;9.006;2022-08-03T20:30:13;29.50;56.20
1728;DHT22;861;48.808;9.006;2022-08-03T20:32:39;29.30;56.20
1728;DHT22;861;48.808;9.006;2022-08-03T20:35:08;29.20;56.40
1728;DHT22;861;48.808;9.006;2022-08-03T20:37:35;29.20;56.60
1728;DHT22;861;48.808;9.006;2022-08-03T20:40:04;29.10;57.00
1728;DHT22;861;48.808;9.006;2022-08-03T20:42:32;29.00;58.20
1728;DHT22;861;48.808;9.006;2022-08-03T20:44:58;29.00;57.30
1728;DHT22;861;48.808;9.006;2022-08-03T20:47:25;28.90;57.80
1728;DHT22;861;48.808;9.006;2022-08-03T20:49:53;28.90;57.50
1728;DHT22;861;48.808;9.006;2022-08-03T20:52:20;28.80;58.90
1728;DHT22;861;48.808;9.006;2022-08-03T20:54:48;28.80;59.00
1728;DHT22;861;48.808;9.006;2022-08-03T20:57:17;28.70;58.00
1728;DHT22;861;48.808;9.006;2022-08-03T20:59:44;28.60;58.20
1728;DHT22;861;48.808;9.006;2022-08-03T21:02:11;28.60;58.30
1728;DHT22;861;48.808;9.006;2022-08-03T21:04:40;28.50;58.50
1728;DHT22;861;48.808;9.006;2022-08-03T21:07:17;28.40;58.60
1728;DHT22;861;48.808;9.006;2022-08-03T21:09:51;28.40;58.90
1728;DHT22;861;48.808;9.006;2022-08-03T21:12:54;28.30;58.70
1728;DHT22;861;48.808;9.006;2022-08-03T21:15:41;28.30;59.60
1728;DHT22;861;48.808;9.006;2022-08-03T21:18:12;28.30;61.30
1728;DHT22;861;48.808;9.006;2022-08-03T21:20:44;28.20;59.30
1728;DHT22;861;48.808;9.006;2022-08-03T21:23:13;28.10;59.40
1728;DHT22;861;48.808;9.006;2022-08-03T21:25:48;28.00;59.70
1728;DHT22;861;48.808;9.006;2022-08-03T21:28:17;28.00;60.60
1728;DHT22;861;48.808;9.006;2022-08-03T21:30:46;27.90;60.10
1728;DHT22;861;48.808;9.006;2022-08-03T21:33:14;27.90;61.70
1728;DHT22;861;48.808;9.006;2022-08-03T21:35:45;27.90;61.90
1728;DHT22;861;48.808;9.006;2022-08-03T21:38:14;27.70;61.50
1728;DHT22;861;48.808;9.006;2022-08-03T21:40:44;27.70;61.90
1728;DHT22;861;48.808;9.006;2022-08-03T21:43:14;27.60;62.40
1728;DHT22;861;48.808;9.006;2022-08-03T21:45:59;27.60;62.90
1728;DHT22;861;48.808;9.006;2022-08-03T21:48:40;27.50;63.80
1728;DHT22;861;48.808;9.006;2022-08-03T21:51:11;27.30;64.10
1728;DHT22;861;48.808;9.006;2022-08-03T21:53:42;27.20;64.30
1728;DHT22;861;48.808;9.006;2022-08-03T21:56:19;27.20;64.90
1728;DHT22;861;48.808;9.006;2022-08-03T21:58:54;27.20;65.90
1728;DHT22;861;48.808;9.006;2022-08-03T22:01:30;27.10;65.70
1728;DHT22;861;48.808;9.006;2022-08-03T22:04:02;27.10;65.40
1728;DHT22;861;48.808;9.006;2022-08-03T22:06:34;27.00;65.60
1728;DHT22;861;48.808;9.006;2022-08-03T22:09:00;27.00;66.60
1728;DHT22;861;48.808;9.006;2022-08-03T22:11:28;27.00;68.20
1728;DHT22;861;48.808;9.006;2022-08-03T22:13:54;26.90;67.20
1728;DHT22;861;48.808;9.006;2022-08-03T22:16:21;26.90;67.90
1728;DHT22;861;48.808;9.006;2022-08-03T22:18:48;26.80;68.40
1728;DHT22;861;48.808;9.006;2022-08-03T22:21:16;26.70;67.40
1728;DHT22;861;48.808;9.006;2022-08-03T22:23:48;26.60;67.30
1728;DHT22;861;48.808;9.006;2022-08-03T22:26:29;26.60;67.60
1728;DHT22;861;48.808;9.006;2022-08-03T22:28:58;26.50;67.40
1728;DHT22;861;48.808;9.006;2022-08-03T22:31:25;26.40;67.40
1728;DHT22;861;48.808;9.006;2022-08-03T22:33:52;26.40;68.10
1728;DHT22;861;48.808;9.006;2022-08-03T22:36:23;26.30;68.10
1728;DHT22;861;48.808;9.006;2022-08-03T22:38:52;26.30;68.60
1728;DHT22;861;48.808;9.006;2022-08-03T22:41:20;26.20;69.20
1728;DHT22;861;48.808;9.006;2022-08-03T22:43:47;26.20;69.70
1728;DHT22;861;48.808;9.006;2022-08-03T22:46:20;26.10;69.80
1728;DHT22;861;48.808;9.006;2022-08-03T22:48:47;26.10;70.00
1728;DHT22;861;48.808;9.006;2022-08-03T22:51:18;26.00;69.70
1728;DHT22;861;48.808;9.006;2022-08-03T22:53:46;26.00;70.30
1728;DHT22;861;48.808;9.006;2022-08-03T22:56:13;25.90;70.70
1728;DHT22;861;48.808;9.006;2022-08-03T22:58:40;25.80;70.60
1728;DHT22;861;48.808;9.006;2022-08-03T23:01:10;25.80;71.30
1728;DHT22;861;48.808;9.006;2022-08-03T23:03:50;25.80;72.30
1728;DHT22;861;48.808;9.006;2022-08-03T23:06:26;25.80;72.90
1728;DHT22;861;48.808;9.006;2022-08-03T23:09:13;25.80;72.70
1728;DHT22;861;48.808;9.006;2022-08-03T23:11:45;25.80;72.50
1728;DHT22;861;48.808;9.006;2022-08-03T23:14:17;25.70;72.10
1728;DHT22;861;48.808;9.006;2022-08-03T23:16:49;25.60;72.80
1728;DHT22;861;48.808;9.006;2022-08-03T23:19:25;25.60;73.30
1728;DHT22;861;48.808;9.006;2022-08-03T23:21:56;25.60;72.70
1728;DHT22;861;48.808;9.006;2022-08-03T23:24:25;25.60;73.20
1728;DHT22;861;48.808;9.006;2022-08-03T23:26:52;25.60;73.70
1728;DHT22;861;48.808;9.006;2022-08-03T23:29:22;25.50;73.50
1728;DHT22;861;48.808;9.006;2022-08-03T23:31:55;25.50;74.20
1728;DHT22;861;48.808;9.006;2022-08-03T23:34:23;25.50;74.30
1728;DHT22;861;48.808;9.006;2022-08-03T23:37:13;25.40;74.60
1728;DHT22;861;48.808;9.006;2022-08-03T23:39:45;25.40;74.90
1728;DHT22;861;48.808;9.006;2022-08-03T23:42:18;25.40;74.80
1728;DHT22;861;48.808;9.006;2022-08-03T23:44:46;25.30;74.80
1728;DHT22;861;48.808;9.006;2022-08-03T23:47:20;25.30;74.80
1728;DHT22;861;48.808;9.006;2022-08-03T23:49:48;25.30;75.30
